Terminal Aerodrome Forecast
Issued by NWS

Home | Current Version | Previous Version | Text Only | Print | Product List | Glossary On
Versions: 1 2 3 4 5 6 7 8 9 10 11 12 13 14 15 16 17 18 19
770
FTUS41 KPBZ 251129
TAFZZV
TAF
KZZV 251129Z 2512/2612 31003KT 5SM BR VCSH BKN015
     FM251800 32009KT P6SM OVC015
     FM252300 34008KT P6SM BKN025
     FM260300 34003KT P6SM BKN060=

USA.gov is the U.S. government's official web portal to all federal, state and local government web resources and services.